sensor_id;sensor_type;location;lat;lon;timestamp;P1;durP1;ratioP1;P2;durP2;ratioP2
16967;SDS011;64862;54.398;10.126;2023-06-14T00:09:02;10.43;;;3.67;;
16967;SDS011;64862;54.398;10.126;2023-06-14T00:19:06;14.00;;;3.60;;
16967;SDS011;64862;54.398;10.126;2023-06-14T00:29:10;10.13;;;3.80;;
16967;SDS011;64862;54.398;10.126;2023-06-14T00:39:15;8.57;;;3.70;;
16967;SDS011;64862;54.398;10.126;2023-06-14T00:49:17;8.10;;;3.50;;
16967;SDS011;64862;54.398;10.126;2023-06-14T00:59:22;12.85;;;3.72;;
16967;SDS011;64862;54.398;10.126;2023-06-14T01:09:27;11.00;;;4.07;;
16967;SDS011;64862;54.398;10.126;2023-06-14T01:19:32;14.00;;;3.80;;
16967;SDS011;64862;54.398;10.126;2023-06-14T01:29:36;8.77;;;3.53;;
16967;SDS011;64862;54.398;10.126;2023-06-14T01:39:39;10.15;;;3.30;;
16967;SDS011;64862;54.398;10.126;2023-06-14T01:49:43;9.70;;;3.53;;
16967;SDS011;64862;54.398;10.126;2023-06-14T01:59:45;8.43;;;3.60;;
16967;SDS011;64862;54.398;10.126;2023-06-14T02:09:50;11.07;;;3.50;;
16967;SDS011;64862;54.398;10.126;2023-06-14T02:19:52;9.48;;;3.42;;
16967;SDS011;64862;54.398;10.126;2023-06-14T02:29:57;10.25;;;3.42;;
16967;SDS011;64862;54.398;10.126;2023-06-14T02:40:00;7.20;;;3.17;;
16967;SDS011;64862;54.398;10.126;2023-06-14T02:50:08;11.23;;;3.78;;
16967;SDS011;64862;54.398;10.126;2023-06-14T03:00:12;10.95;;;3.80;;
16967;SDS011;64862;54.398;10.126;2023-06-14T03:10:20;12.13;;;3.40;;
16967;SDS011;64862;54.398;10.126;2023-06-14T03:20:24;9.52;;;3.20;;
16967;SDS011;64862;54.398;10.126;2023-06-14T03:30:35;9.27;;;3.22;;
16967;SDS011;64862;54.398;10.126;2023-06-14T03:40:38;9.25;;;3.00;;
16967;SDS011;64862;54.398;10.126;2023-06-14T03:50:43;8.15;;;3.50;;
16967;SDS011;64862;54.398;10.126;2023-06-14T04:00:46;8.38;;;3.40;;
16967;SDS011;64862;54.398;10.126;2023-06-14T04:10:52;7.45;;;3.30;;
16967;SDS011;64862;54.398;10.126;2023-06-14T04:20:54;10.57;;;3.10;;
16967;SDS011;64862;54.398;10.126;2023-06-14T04:31:01;10.82;;;3.28;;
16967;SDS011;64862;54.398;10.126;2023-06-14T04:41:06;10.65;;;3.42;;
16967;SDS011;64862;54.398;10.126;2023-06-14T04:51:14;9.50;;;3.40;;
16967;SDS011;64862;54.398;10.126;2023-06-14T05:01:17;9.38;;;3.25;;
16967;SDS011;64862;54.398;10.126;2023-06-14T05:11:21;10.77;;;2.88;;
16967;SDS011;64862;54.398;10.126;2023-06-14T05:21:25;9.55;;;3.33;;
16967;SDS011;64862;54.398;10.126;2023-06-14T05:31:28;10.05;;;2.75;;
16967;SDS011;64862;54.398;10.126;2023-06-14T05:41:31;8.68;;;2.60;;
16967;SDS011;64862;54.398;10.126;2023-06-14T05:51:35;7.70;;;2.90;;
16967;SDS011;64862;54.398;10.126;2023-06-14T06:01:37;7.45;;;3.00;;
16967;SDS011;64862;54.398;10.126;2023-06-14T06:11:42;6.85;;;2.53;;
16967;SDS011;64862;54.398;10.126;2023-06-14T06:21:44;11.43;;;2.75;;
16967;SDS011;64862;54.398;10.126;2023-06-14T06:31:48;9.93;;;3.03;;
16967;SDS011;64862;54.398;10.126;2023-06-14T06:41:51;10.88;;;3.17;;
16967;SDS011;64862;54.398;10.126;2023-06-14T06:52:06;11.02;;;2.60;;
16967;SDS011;64862;54.398;10.126;2023-06-14T07:02:08;7.13;;;2.90;;
16967;SDS011;64862;54.398;10.126;2023-06-14T07:12:13;8.48;;;2.80;;
16967;SDS011;64862;54.398;10.126;2023-06-14T07:22:15;8.27;;;2.70;;
16967;SDS011;64862;54.398;10.126;2023-06-14T07:32:19;6.72;;;2.42;;
16967;SDS011;64862;54.398;10.126;2023-06-14T07:42:22;7.22;;;2.97;;
16967;SDS011;64862;54.398;10.126;2023-06-14T07:52:26;10.00;;;2.53;;
16967;SDS011;64862;54.398;10.126;2023-06-14T08:02:28;9.50;;;3.00;;
16967;SDS011;64862;54.398;10.126;2023-06-14T08:12:32;9.45;;;2.67;;
16967;SDS011;64862;54.398;10.126;2023-06-14T08:22:35;8.02;;;2.58;;
16967;SDS011;64862;54.398;10.126;2023-06-14T08:32:39;9.98;;;3.03;;
16967;SDS011;64862;54.398;10.126;2023-06-14T08:42:42;7.72;;;3.20;;
16967;SDS011;64862;54.398;10.126;2023-06-14T08:52:47;9.85;;;2.90;;
16967;SDS011;64862;54.398;10.126;2023-06-14T09:02:51;8.88;;;2.67;;
16967;SDS011;64862;54.398;10.126;2023-06-14T09:12:57;7.30;;;2.40;;
16967;SDS011;64862;54.398;10.126;2023-06-14T09:23:00;9.93;;;3.07;;
16967;SDS011;64862;54.398;10.126;2023-06-14T09:33:04;9.40;;;2.90;;
16967;SDS011;64862;54.398;10.126;2023-06-14T09:43:07;5.20;;;2.33;;
16967;SDS011;64862;54.398;10.126;2023-06-14T09:53:14;8.95;;;2.60;;
16967;SDS011;64862;54.398;10.126;2023-06-14T10:03:18;6.05;;;2.40;;
16967;SDS011;64862;54.398;10.126;2023-06-14T10:13:25;8.15;;;2.60;;
16967;SDS011;64862;54.398;10.126;2023-06-14T10:23:28;9.40;;;2.40;;
16967;SDS011;64862;54.398;10.126;2023-06-14T10:33:32;6.40;;;2.28;;
16967;SDS011;64862;54.398;10.126;2023-06-14T10:43:35;5.90;;;2.13;;
16967;SDS011;64862;54.398;10.126;2023-06-14T10:53:41;6.55;;;2.20;;
16967;SDS011;64862;54.398;10.126;2023-06-14T11:03:50;7.13;;;2.40;;
16967;SDS011;64862;54.398;10.126;2023-06-14T11:13:54;8.88;;;2.28;;
16967;SDS011;64862;54.398;10.126;2023-06-14T11:23:57;7.30;;;2.80;;
16967;SDS011;64862;54.398;10.126;2023-06-14T11:34:01;4.93;;;2.22;;
16967;SDS011;64862;54.398;10.126;2023-06-14T11:44:04;11.25;;;2.65;;
16967;SDS011;64862;54.398;10.126;2023-06-14T11:54:08;10.13;;;3.45;;
16967;SDS011;64862;54.398;10.126;2023-06-14T12:04:11;7.60;;;2.75;;
16967;SDS011;64862;54.398;10.126;2023-06-14T12:14:15;8.25;;;2.45;;
16967;SDS011;64862;54.398;10.126;2023-06-14T12:24:18;10.88;;;2.58;;
16967;SDS011;64862;54.398;10.126;2023-06-14T12:34:23;9.68;;;2.72;;
16967;SDS011;64862;54.398;10.126;2023-06-14T12:44:26;5.40;;;2.67;;
16967;SDS011;64862;54.398;10.126;2023-06-14T12:54:30;9.23;;;2.88;;
16967;SDS011;64862;54.398;10.126;2023-06-14T13:04:33;5.38;;;2.78;;
16967;SDS011;64862;54.398;10.126;2023-06-14T13:14:37;8.13;;;2.80;;
16967;SDS011;64862;54.398;10.126;2023-06-14T13:24:40;10.27;;;3.03;;
16967;SDS011;64862;54.398;10.126;2023-06-14T13:34:46;5.85;;;2.55;;
16967;SDS011;64862;54.398;10.126;2023-06-14T13:44:48;9.68;;;3.15;;
16967;SDS011;64862;54.398;10.126;2023-06-14T13:54:53;6.43;;;3.13;;
16967;SDS011;64862;54.398;10.126;2023-06-14T14:04:56;11.45;;;3.08;;
16967;SDS011;64862;54.398;10.126;2023-06-14T14:15:01;10.50;;;2.92;;
16967;SDS011;64862;54.398;10.126;2023-06-14T14:25:04;6.22;;;2.80;;
16967;SDS011;64862;54.398;10.126;2023-06-14T14:35:08;12.50;;;2.90;;
16967;SDS011;64862;54.398;10.126;2023-06-14T14:45:12;7.70;;;2.70;;
16967;SDS011;64862;54.398;10.126;2023-06-14T14:55:16;6.32;;;2.83;;
16967;SDS011;64862;54.398;10.126;2023-06-14T15:05:18;5.72;;;3.00;;
16967;SDS011;64862;54.398;10.126;2023-06-14T15:15:22;8.25;;;2.70;;
16967;SDS011;64862;54.398;10.126;2023-06-14T15:25:25;6.57;;;2.72;;
16967;SDS011;64862;54.398;10.126;2023-06-14T15:35:29;7.30;;;2.45;;
16967;SDS011;64862;54.398;10.126;2023-06-14T15:45:31;6.63;;;2.30;;
16967;SDS011;64862;54.398;10.126;2023-06-14T15:55:35;8.88;;;2.60;;
16967;SDS011;64862;54.398;10.126;2023-06-14T16:05:38;13.18;;;2.60;;
16967;SDS011;64862;54.398;10.126;2023-06-14T16:15:42;9.88;;;2.50;;
16967;SDS011;64862;54.398;10.126;2023-06-14T16:25:44;8.98;;;2.80;;
16967;SDS011;64862;54.398;10.126;2023-06-14T16:35:48;10.95;;;2.72;;
16967;SDS011;64862;54.398;10.126;2023-06-14T16:45:51;4.65;;;2.70;;
16967;SDS011;64862;54.398;10.126;2023-06-14T16:55:55;6.70;;;2.60;;
16967;SDS011;64862;54.398;10.126;2023-06-14T17:05:57;10.32;;;2.85;;
16967;SDS011;64862;54.398;10.126;2023-06-14T17:16:02;8.32;;;2.70;;
16967;SDS011;64862;54.398;10.126;2023-06-14T17:26:08;8.88;;;3.10;;
16967;SDS011;64862;54.398;10.126;2023-06-14T17:36:12;7.90;;;2.55;;
16967;SDS011;64862;54.398;10.126;2023-06-14T17:46:15;10.70;;;2.50;;
16967;SDS011;64862;54.398;10.126;2023-06-14T17:56:19;5.55;;;2.38;;
16967;SDS011;64862;54.398;10.126;2023-06-14T18:06:21;7.07;;;2.55;;
16967;SDS011;64862;54.398;10.126;2023-06-14T18:16:25;4.43;;;2.30;;
16967;SDS011;64862;54.398;10.126;2023-06-14T18:26:28;6.60;;;2.10;;
16967;SDS011;64862;54.398;10.126;2023-06-14T18:36:32;7.65;;;2.40;;
16967;SDS011;64862;54.398;10.126;2023-06-14T18:56:41;6.10;;;2.35;;
16967;SDS011;64862;54.398;10.126;2023-06-14T19:06:43;8.43;;;2.10;;
16967;SDS011;64862;54.398;10.126;2023-06-14T19:16:47;5.88;;;2.40;;
16967;SDS011;64862;54.398;10.126;2023-06-14T19:26:50;6.72;;;2.10;;
16967;SDS011;64862;54.398;10.126;2023-06-14T19:36:54;6.75;;;2.30;;
16967;SDS011;64862;54.398;10.126;2023-06-14T19:46:56;7.03;;;2.25;;
16967;SDS011;64862;54.398;10.126;2023-06-14T19:57:00;5.85;;;2.42;;
16967;SDS011;64862;54.398;10.126;2023-06-14T20:07:03;3.80;;;2.10;;
16967;SDS011;64862;54.398;10.126;2023-06-14T20:17:07;7.65;;;2.25;;
16967;SDS011;64862;54.398;10.126;2023-06-14T20:27:10;4.32;;;2.45;;
16967;SDS011;64862;54.398;10.126;2023-06-14T20:37:14;4.93;;;2.40;;
16967;SDS011;64862;54.398;10.126;2023-06-14T20:47:17;6.65;;;2.70;;
16967;SDS011;64862;54.398;10.126;2023-06-14T20:57:21;5.70;;;2.83;;
16967;SDS011;64862;54.398;10.126;2023-06-14T21:07:24;5.32;;;2.50;;
16967;SDS011;64862;54.398;10.126;2023-06-14T21:17:28;4.97;;;2.53;;
16967;SDS011;64862;54.398;10.126;2023-06-14T21:27:30;5.22;;;2.75;;
16967;SDS011;64862;54.398;10.126;2023-06-14T21:37:34;6.30;;;2.90;;
16967;SDS011;64862;54.398;10.126;2023-06-14T21:47:36;5.15;;;2.45;;
16967;SDS011;64862;54.398;10.126;2023-06-14T21:57:40;5.15;;;2.60;;
16967;SDS011;64862;54.398;10.126;2023-06-14T22:07:42;5.45;;;2.80;;
16967;SDS011;64862;54.398;10.126;2023-06-14T22:17:46;7.82;;;2.92;;
16967;SDS011;64862;54.398;10.126;2023-06-14T22:27:49;6.53;;;2.97;;
16967;SDS011;64862;54.398;10.126;2023-06-14T22:37:54;4.60;;;3.15;;
16967;SDS011;64862;54.398;10.126;2023-06-14T22:47:57;7.75;;;3.10;;
16967;SDS011;64862;54.398;10.126;2023-06-14T22:58:00;4.97;;;2.85;;
16967;SDS011;64862;54.398;10.126;2023-06-14T23:08:03;5.07;;;2.97;;
16967;SDS011;64862;54.398;10.126;2023-06-14T23:18:09;4.53;;;2.50;;
16967;SDS011;64862;54.398;10.126;2023-06-14T23:28:11;8.25;;;2.70;;
16967;SDS011;64862;54.398;10.126;2023-06-14T23:38:18;4.13;;;2.65;;
16967;SDS011;64862;54.398;10.126;2023-06-14T23:48:21;6.93;;;3.10;;
16967;SDS011;64862;54.398;10.126;2023-06-14T23:58:27;5.68;;;2.80;;
